Terminal Aerodrome Forecast
Issued by NWS Twin Cities, MN

Home | Current Version | Previous Version | Text Only | Print | Product List | Glossary Off
Versions: 1 2 3 4 5 6 7 8 9 10 11 12 13 14 15 16 17 18 19 20 21 22 23 24 25 26 27 28 29 30 31

000
FTUS43 KMPX 251139
TAFMSP
TAF
KMSP 251139Z 2512/2618 12006KT 1SM BR OVC005
     FM251400 16004KT 3SM -RA BR SCT005 OVC009
     FM251800 22009KT P6SM OVC012
     FM252100 25009KT P6SM OVC020
     FM260000 28009KT P6SM FEW020 OVC050
     FM260600 VRB03KT P6SM OVC030
     FM260900 36003KT 3SM BR OVC008=

USA.gov is the U.S. government's official web portal to all federal, state and local government web resources and services.